Time;durP1;ratioP1;P1;durP2;ratioP2;P2;SDS_P1;SDS_P2;PMS_P1;PMS_P2;Temp;Humidity;BMP_temperature;BMP_pressure;BME280_temperature;BME280_humidity;BME280_pressure;Samples;Min_cycle;Max_cycle;Signal;HPM_P1;HPM_P2
2022/05/16 00:00:36;;;;;;;42.15;28.27;;;15.40;99.90;;;;;;5005726;28;20025;-64
2022/05/16 00:03:04;;;;;;;49.08;28.25;;;15.40;99.90;;;;;;5022029;28;20025;-64
2022/05/16 00:05:30;;;;;;;40.88;28.67;;;15.40;99.90;;;;;;5015440;28;20081;-64
2022/05/16 00:07:56;;;;;;;51.58;28.33;;;15.40;99.90;;;;;;5002773;28;20036;-64
2022/05/16 00:10:23;;;;;;;48.17;28.63;;;15.50;99.90;;;;;;5003742;28;20022;-64
2022/05/16 00:12:48;;;;;;;47.80;29.98;;;15.60;99.90;;;;;;5004918;28;20072;-63
2022/05/16 00:15:17;;;;;;;47.72;29.48;;;15.60;99.90;;;;;;5007512;28;20045;-63
2022/05/16 00:17:43;;;;;;;47.88;29.98;;;15.60;99.90;;;;;;5006505;28;20029;-63
2022/05/16 00:20:09;;;;;;;56.53;30.75;;;15.50;99.90;;;;;;5007180;28;20034;-63
2022/05/16 00:22:35;;;;;;;49.75;30.00;;;15.50;99.90;;;;;;5007333;28;20030;-64
2022/05/16 00:25:04;;;;;;;47.92;28.48;;;15.50;99.90;;;;;;5007073;28;20026;-63
2022/05/16 00:27:34;;;;;;;47.72;28.70;;;15.40;99.90;;;;;;5007369;28;20245;-63
2022/05/16 00:30:01;;;;;;;47.25;28.75;;;15.40;99.90;;;;;;5007119;28;20019;-63
2022/05/16 00:32:27;;;;;;;46.92;28.65;;;15.40;99.90;;;;;;5006902;28;20077;-63
2022/05/16 00:34:52;;;;;;;43.15;29.67;;;15.30;99.90;;;;;;5005904;28;20219;-64
2022/05/16 00:37:18;;;;;;;53.83;30.35;;;15.20;99.90;;;;;;5006944;28;20022;-63
2022/05/16 00:39:44;;;;;;;51.05;32.38;;;15.20;99.90;;;;;;5006721;28;20077;-63
2022/05/16 00:42:12;;;;;;;51.58;32.28;;;15.10;99.90;;;;;;5006051;28;20032;-63
2022/05/16 00:44:38;;;;;;;56.33;34.28;;;15.10;99.90;;;;;;5005614;28;20038;-64
2022/05/16 00:47:05;;;;;;;61.45;34.88;;;15.10;99.90;;;;;;5014946;28;20022;-64
2022/05/16 00:49:35;;;;;;;62.55;35.72;;;15.10;99.90;;;;;;5008629;28;20049;-63
2022/05/16 00:52:14;;;;;;;61.53;38.15;;;15.10;99.90;;;;;;5025460;28;20025;-63
2022/05/16 00:54:44;;;;;;;69.95;39.17;;;15.00;99.90;;;;;;5010159;28;20090;-63
2022/05/16 00:57:17;;;;;;;61.78;37.97;;;15.00;99.90;;;;;;5024817;28;20089;-63
2022/05/16 01:00:06;;;;;;;57.90;35.97;;;15.00;99.90;;;;;;5023546;28;20104;-63
2022/05/16 01:05:20;;;;;;;59.92;35.28;;;15.10;99.90;;;;;;5011649;28;20017;-63
2022/05/16 01:07:46;;;;;;;60.63;35.35;;;15.10;99.90;;;;;;5024824;28;20054;-63
2022/05/16 01:10:20;;;;;;;62.65;33.83;;;15.10;99.90;;;;;;5024703;28;20026;-63
2022/05/16 01:12:48;;;;;;;61.08;34.00;;;15.20;99.90;;;;;;5024980;28;20034;-63
2022/05/16 01:15:40;;;;;;;62.97;34.08;;;15.20;99.90;;;;;;5026104;28;20022;-63
2022/05/16 01:18:08;;;;;;;61.65;34.85;;;15.20;99.90;;;;;;5008517;28;20033;-64
2022/05/16 01:21:05;;;;;;;59.40;34.00;;;15.20;99.90;;;;;;5008261;28;20107;-63
2022/05/16 01:23:41;;;;;;;53.42;33.22;;;15.20;99.90;;;;;;5023691;28;20044;-63
2022/05/16 01:26:13;;;;;;;63.47;34.55;;;15.20;99.90;;;;;;5024854;28;20032;-64
2022/05/16 01:28:38;;;;;;;;;;;15.10;99.90;;;;;;5008777;28;20037;-64
2022/05/16 01:31:05;;;;;;;61.78;33.90;;;15.10;99.90;;;;;;5025395;28;20211;-64
2022/05/16 01:33:31;;;;;;;57.90;35.05;;;15.10;99.90;;;;;;5025733;28;20028;-64
2022/05/16 01:35:56;;;;;;;59.95;34.50;;;15.10;99.90;;;;;;5024277;28;20018;-63
2022/05/16 01:38:28;;;;;;;55.58;34.63;;;15.20;99.90;;;;;;5024444;28;20360;-64
2022/05/16 01:40:58;;;;;;;58.35;33.67;;;15.20;99.90;;;;;;5008595;28;20033;-64
2022/05/16 01:43:28;;;;;;;58.63;33.25;;;15.20;99.90;;;;;;5024581;28;20251;-64
2022/05/16 01:45:54;;;;;;;49.33;32.00;;;15.30;99.90;;;;;;5008046;28;20038;-64
2022/05/16 01:48:21;;;;;;;55.90;34.08;;;15.40;99.90;;;;;;5021249;28;20018;-64
2022/05/16 01:50:49;;;;;;;52.78;32.65;;;15.40;99.90;;;;;;5004791;28;20037;-64
2022/05/16 01:53:16;;;;;;;47.78;30.05;;;15.40;99.90;;;;;;4988706;28;20072;-64
2022/05/16 01:55:42;;;;;;;51.83;30.13;;;15.50;99.90;;;;;;4989117;28;20032;-64
2022/05/16 01:58:08;;;;;;;49.28;28.52;;;15.50;99.90;;;;;;5006043;28;20058;-65
2022/05/16 02:00:35;;;;;;;45.72;26.95;;;15.50;99.90;;;;;;5004994;28;20340;-64
2022/05/16 02:03:02;;;;;;;40.20;26.35;;;15.40;99.90;;;;;;5006278;28;20045;-64
2022/05/16 02:05:28;;;;;;;43.28;25.45;;;15.40;99.90;;;;;;5012603;28;20017;-64
2022/05/16 02:07:54;;;;;;;37.40;23.58;;;15.40;99.90;;;;;;5026113;28;20093;-64
2022/05/16 02:10:22;;;;;;;39.03;22.00;;;15.50;99.90;;;;;;5027229;28;20252;-65
2022/05/16 02:12:49;;;;;;;36.28;21.77;;;15.50;99.90;;;;;;5028499;28;20030;-64
2022/05/16 02:15:19;;;;;;;38.53;20.70;;;15.50;99.90;;;;;;5028674;28;20037;-64
2022/05/16 02:17:45;;;;;;;31.70;19.52;;;15.60;99.90;;;;;;5030870;28;20040;-65
2022/05/16 02:20:13;;;;;;;29.75;18.92;;;15.60;99.90;;;;;;5016057;28;20309;-64
2022/05/16 02:25:24;;;;;;;27.85;16.88;;;15.70;99.90;;;;;;5036447;28;20030;-63
2022/05/16 02:27:51;;;;;;;27.80;15.25;;;15.80;99.90;;;;;;5021310;28;20002;-65
2022/05/16 02:30:17;;;;;;;25.67;14.93;;;15.80;99.90;;;;;;5037822;28;20017;-63
2022/05/16 02:32:43;;;;;;;25.90;14.80;;;15.70;99.90;;;;;;5021404;28;20018;-64
2022/05/16 02:35:09;;;;;;;24.35;15.55;;;15.70;99.90;;;;;;5038333;28;20030;-63
2022/05/16 02:37:36;;;;;;;25.13;13.52;;;15.70;99.90;;;;;;5038569;28;20033;-64
2022/05/16 02:40:02;;;;;;;24.45;13.23;;;15.70;99.90;;;;;;5035897;28;20030;-64
2022/05/16 02:42:28;;;;;;;33.47;14.27;;;15.70;99.90;;;;;;5028024;28;20021;-64
2022/05/16 02:44:54;;;;;;;26.05;14.50;;;15.70;99.90;;;;;;5026956;28;20045;-64
2022/05/16 02:47:21;;;;;;;22.35;12.43;;;15.80;99.90;;;;;;5009013;28;20029;-66
2022/05/16 02:49:47;;;;;;;22.55;12.35;;;15.80;99.90;;;;;;5007834;28;20026;-64
2022/05/16 02:52:13;;;;;;;24.00;11.93;;;15.80;99.90;;;;;;5023600;28;20026;-64
2022/05/16 02:54:39;;;;;;;20.83;11.80;;;15.80;99.90;;;;;;5024685;28;20017;-64
2022/05/16 02:57:07;;;;;;;22.50;11.88;;;15.80;99.90;;;;;;5022801;28;20197;-64
2022/05/16 02:59:33;;;;;;;22.55;11.77;;;15.80;99.90;;;;;;5023133;28;20083;-64
2022/05/16 03:02:02;;;;;;;22.52;11.27;;;15.80;99.90;;;;;;5022409;28;20092;-64
2022/05/16 03:04:27;;;;;;;21.30;10.93;;;15.70;99.90;;;;;;4990828;28;20022;-64
2022/05/16 03:06:54;;;;;;;23.95;11.07;;;15.70;99.90;;;;;;5004773;28;20273;-64
2022/05/16 03:09:21;;;;;;;20.25;9.93;;;15.70;99.90;;;;;;5004691;28;20030;-64
2022/05/16 03:11:47;;;;;;;24.05;9.80;;;15.80;99.90;;;;;;4986919;28;20093;-64
2022/05/16 03:14:13;;;;;;;21.90;8.90;;;15.90;99.90;;;;;;5003573;28;20023;-64
2022/05/16 03:16:39;;;;;;;20.67;9.35;;;15.90;99.90;;;;;;5003486;28;20029;-64
2022/05/16 03:19:06;;;;;;;24.52;9.13;;;15.90;99.90;;;;;;5003059;28;20355;-64
2022/05/16 03:21:32;;;;;;;23.35;9.45;;;15.80;99.90;;;;;;4986834;28;20026;-64
2022/05/16 03:23:59;;;;;;;17.58;8.48;;;15.80;99.90;;;;;;5003910;28;20018;-64
2022/05/16 03:26:25;;;;;;;22.98;8.55;;;15.90;99.90;;;;;;5003284;28;20057;-63
2022/05/16 03:28:51;;;;;;;20.55;8.52;;;15.90;99.90;;;;;;4986902;28;20049;-63
2022/05/16 03:31:17;;;;;;;29.05;8.85;;;16.00;99.90;;;;;;5003921;28;20026;-64
2022/05/16 03:33:43;;;;;;;20.45;8.82;;;16.00;99.90;;;;;;5002731;28;20025;-64
2022/05/16 03:36:08;;;;;;;20.33;8.88;;;16.00;99.90;;;;;;5004338;28;20089;-64
2022/05/16 03:41:20;;;;;;;27.20;9.00;;;16.00;99.90;;;;;;5003267;28;20106;-63
2022/05/16 03:43:46;;;;;;;26.55;9.75;;;16.00;99.90;;;;;;5002709;28;20018;-64
2022/05/16 03:46:12;;;;;;;28.27;10.07;;;16.00;99.90;;;;;;4988994;28;20018;-64
2022/05/16 03:48:39;;;;;;;23.00;9.40;;;16.00;99.90;;;;;;5026562;28;20212;-64
2022/05/16 03:51:06;;;;;;;33.33;10.00;;;16.00;99.90;;;;;;5026524;28;20033;-64
2022/05/16 03:53:35;;;;;;;26.60;10.30;;;16.00;99.90;;;;;;5009704;28;20097;-64
2022/05/16 03:56:02;;;;;;;30.73;11.90;;;16.00;99.90;;;;;;5027665;28;20029;-64
2022/05/16 03:58:28;;;;;;;33.45;11.15;;;16.00;99.90;;;;;;5026104;28;20335;-64
2022/05/16 04:00:54;;;;;;;30.48;10.52;;;16.00;99.90;;;;;;5008606;28;20037;-65
2022/05/16 04:03:20;;;;;;;30.90;10.55;;;16.00;99.90;;;;;;5024983;28;20021;-64
2022/05/16 04:05:45;;;;;;;33.33;11.23;;;16.00;99.90;;;;;;5009476;28;20022;-64
2022/05/16 04:08:11;;;;;;;25.73;10.90;;;16.00;99.90;;;;;;5026156;28;20182;-64
2022/05/16 04:10:37;;;;;;;31.30;11.07;;;16.10;99.90;;;;;;5009506;28;20076;-64
2022/05/16 04:13:03;;;;;;;25.10;11.00;;;16.00;99.90;;;;;;5009459;28;20206;-64
2022/05/16 04:15:28;;;;;;;33.95;11.23;;;16.00;99.90;;;;;;5026051;28;20018;-64
2022/05/16 04:17:54;;;;;;;33.50;11.85;;;16.10;99.90;;;;;;5009806;28;20022;-64
2022/05/16 04:20:21;;;;;;;30.95;12.10;;;16.00;99.90;;;;;;5009243;28;20034;-64
2022/05/16 04:22:47;;;;;;;31.90;12.13;;;16.00;99.90;;;;;;5026709;28;20025;-64
2022/05/16 04:25:17;;;;;;;31.02;12.25;;;16.00;99.90;;;;;;5026582;28;20335;-64
2022/05/16 04:27:43;;;;;;;30.98;12.20;;;15.90;99.90;;;;;;5027061;28;20033;-64
2022/05/16 04:30:10;;;;;;;33.67;11.98;;;15.90;99.90;;;;;;5009481;28;20033;-64
2022/05/16 04:32:36;;;;;;;29.17;12.43;;;16.00;99.90;;;;;;5025402;28;20213;-64
2022/05/16 04:35:03;;;;;;;31.38;11.73;;;15.90;99.90;;;;;;5009154;28;20248;-64
2022/05/16 04:37:32;;;;;;;29.77;12.77;;;15.90;99.90;;;;;;5025535;28;20042;-64
2022/05/16 04:40:00;;;;;;;29.52;13.43;;;15.80;99.90;;;;;;5026520;28;20034;-64
2022/05/16 04:42:41;;;;;;;29.90;13.27;;;15.80;99.90;;;;;;5026357;28;20240;-64
2022/05/16 04:45:16;;;;;;;33.03;14.05;;;15.80;99.90;;;;;;5026429;28;20032;-64
2022/05/16 04:47:45;;;;;;;31.30;13.93;;;15.90;99.90;;;;;;5025204;28;20028;-64
2022/05/16 04:50:13;;;;;;;33.13;13.32;;;15.90;99.90;;;;;;5026544;28;20041;-64
2022/05/16 04:52:38;;;;;;;27.92;13.07;;;16.00;99.90;;;;;;5008748;28;20022;-65
2022/05/16 04:55:05;;;;;;;26.65;14.38;;;15.90;99.90;;;;;;5025311;28;20026;-64
2022/05/16 04:57:31;;;;;;;31.58;14.35;;;15.90;99.90;;;;;;5026112;28;20068;-64
2022/05/16 04:59:57;;;;;;;29.55;14.90;;;15.80;99.90;;;;;;5025320;28;20026;-65
2022/05/16 05:02:23;;;;;;;35.47;14.50;;;15.70;99.90;;;;;;5022976;28;20072;-64
2022/05/16 05:04:49;;;;;;;33.28;14.65;;;15.80;99.90;;;;;;5024818;28;20309;-64
2022/05/16 05:07:15;;;;;;;30.15;15.00;;;15.80;99.90;;;;;;5026066;28;20064;-64
2022/05/16 05:15:15;;;;;;;37.55;16.30;;;15.70;99.90;;;;;;5010990;28;20064;-64
2022/05/16 05:17:41;;;;;;;28.67;15.27;;;15.70;99.90;;;;;;5026087;28;20024;-64
2022/05/16 05:20:13;;;;;;;36.03;15.23;;;15.70;99.90;;;;;;5025667;28;20030;-64
2022/05/16 05:22:40;;;;;;;33.65;15.75;;;15.80;99.90;;;;;;5024329;28;20327;-64
2022/05/16 05:25:07;;;;;;;34.83;15.48;;;15.90;99.90;;;;;;5025766;28;20356;-64
2022/05/16 05:27:33;;;;;;;32.10;15.57;;;16.00;99.90;;;;;;5024558;28;20092;-64
2022/05/16 05:29:59;;;;;;;28.48;14.80;;;16.00;99.90;;;;;;5024711;28;20329;-64
2022/05/16 05:32:24;;;;;;;34.40;15.25;;;16.00;99.90;;;;;;5025270;28;20092;-64
2022/05/16 05:34:50;;;;;;;27.85;15.15;;;16.10;99.90;;;;;;5025347;28;20076;-64
2022/05/16 05:37:16;;;;;;;29.08;15.65;;;16.10;99.90;;;;;;5025512;28;20136;-64
2022/05/16 05:39:42;;;;;;;32.17;16.00;;;16.10;99.90;;;;;;5024322;28;20040;-64
2022/05/16 05:42:08;;;;;;;33.78;15.23;;;16.10;99.90;;;;;;5024506;28;20084;-64
2022/05/16 05:44:33;;;;;;;33.45;15.80;;;16.10;99.90;;;;;;5024024;28;20301;-64
2022/05/16 05:47:01;;;;;;;35.50;16.77;;;16.00;99.90;;;;;;5025080;28;20030;-65
2022/05/16 05:49:27;;;;;;;32.67;16.27;;;16.00;99.90;;;;;;5024333;28;20018;-65
2022/05/16 05:51:53;;;;;;;32.10;15.77;;;16.10;99.90;;;;;;5024862;28;20316;-65
2022/05/16 05:54:19;;;;;;;27.95;13.82;;;16.20;99.90;;;;;;5025027;28;20060;-64
2022/05/16 05:56:44;;;;;;;25.00;13.48;;;16.30;99.90;;;;;;5024634;28;20025;-66
2022/05/16 05:59:10;;;;;;;21.75;12.85;;;16.30;99.90;;;;;;5023704;28;20060;-63
2022/05/16 06:01:36;;;;;;;26.95;14.35;;;16.30;99.90;;;;;;5024881;28;20029;-65
2022/05/16 06:04:01;;;;;;;24.17;13.02;;;16.20;99.90;;;;;;5006138;28;20018;-65
2022/05/16 06:06:28;;;;;;;27.38;14.05;;;16.20;99.90;;;;;;5024882;28;20124;-65
2022/05/16 06:08:53;;;;;;;29.80;13.60;;;16.20;99.90;;;;;;5007432;28;20330;-64
2022/05/16 06:11:20;;;;;;;30.60;15.00;;;16.20;99.90;;;;;;5023145;28;20026;-66
2022/05/16 06:13:45;;;;;;;27.45;13.95;;;16.10;99.90;;;;;;5024894;28;20018;-65
2022/05/16 06:16:11;;;;;;;29.60;13.77;;;16.10;99.90;;;;;;5023573;28;20052;-66
2022/05/16 06:18:37;;;;;;;27.15;13.30;;;16.20;99.90;;;;;;5024966;28;20018;-65
2022/05/16 06:21:03;;;;;;;25.10;13.18;;;16.30;99.90;;;;;;5023246;28;20331;-65
2022/05/16 06:23:29;;;;;;;29.48;13.15;;;16.40;99.90;;;;;;5024538;28;20022;-65
2022/05/16 06:25:57;;;;;;;28.27;12.52;;;16.50;99.90;;;;;;5023167;28;20040;-65
2022/05/16 06:28:25;;;;;;;24.70;11.63;;;16.60;99.90;;;;;;5023490;28;20071;-65
2022/05/16 06:30:52;;;;;;;24.63;11.52;;;16.60;99.90;;;;;;5023299;28;20034;-64
2022/05/16 06:33:21;;;;;;;20.83;11.43;;;16.50;99.90;;;;;;5024515;28;20029;-65
2022/05/16 06:35:48;;;;;;;21.83;11.80;;;16.40;99.90;;;;;;5000967;28;20335;-65
2022/05/16 06:38:17;;;;;;;25.48;11.25;;;16.30;99.90;;;;;;5021119;28;20391;-65
2022/05/16 06:40:46;;;;;;;23.98;10.60;;;16.20;99.90;;;;;;5022687;28;20093;-65
2022/05/16 06:43:12;;;;;;;24.77;10.43;;;16.30;99.90;;;;;;5021772;28;20033;-65
2022/05/16 06:45:39;;;;;;;23.30;10.48;;;16.10;99.90;;;;;;5022521;28;20026;-65
2022/05/16 06:48:06;;;;;;;20.30;10.13;;;16.20;99.90;;;;;;5023755;28;20021;-66
2022/05/16 06:50:33;;;;;;;21.20;10.48;;;16.20;99.90;;;;;;5023980;28;20202;-66
2022/05/16 06:53:00;;;;;;;22.02;10.80;;;16.20;99.90;;;;;;4986679;28;20097;-66
2022/05/16 06:55:26;;;;;;;20.13;9.25;;;16.20;99.90;;;;;;4970985;28;20042;-66
2022/05/16 06:57:52;;;;;;;20.02;9.38;;;16.30;99.90;;;;;;5002913;28;20244;-67
2022/05/16 07:00:19;;;;;;;20.13;8.80;;;16.40;99.90;;;;;;5004044;28;20037;-65
2022/05/16 07:02:45;;;;;;;17.60;7.68;;;16.50;99.90;;;;;;5003811;28;20054;-66
2022/05/16 07:05:13;;;;;;;14.35;7.28;;;16.70;99.90;;;;;;5010508;28;20025;-66
2022/05/16 07:07:38;;;;;;;17.50;7.45;;;16.90;99.90;;;;;;5025506;28;20068;-67
2022/05/16 07:10:05;;;;;;;20.05;7.20;;;17.10;99.90;;;;;;5042206;28;20040;-67
2022/05/16 07:12:31;;;;;;;20.55;6.90;;;17.20;99.90;;;;;;5018137;28;20093;-68
2022/05/16 07:14:58;;;;;;;11.68;5.72;;;17.30;99.90;;;;;;5026325;28;20021;-69
2022/05/16 07:17:24;;;;;;;15.93;5.72;;;17.30;99.90;;;;;;5022246;28;20014;-66
2022/05/16 07:19:50;;;;;;;17.65;6.07;;;17.20;99.90;;;;;;5020461;28;20033;-68
2022/05/16 07:22:19;;;;;;;22.20;5.65;;;17.20;99.90;;;;;;5020825;28;20037;-65
2022/05/16 07:24:45;;;;;;;12.27;5.75;;;17.30;99.90;;;;;;5021833;28;20014;-67
2022/05/16 07:29:57;;;;;;;11.88;5.30;;;17.40;99.90;;;;;;5008046;28;20045;-66
2022/05/16 07:32:23;;;;;;;14.93;5.25;;;17.60;99.90;;;;;;5021468;28;20025;-67
2022/05/16 07:34:49;;;;;;;9.90;4.80;;;17.60;99.90;;;;;;5020694;28;20014;-68
2022/05/16 07:37:15;;;;;;;9.35;4.43;;;17.70;99.90;;;;;;5021569;28;20033;-66
2022/05/16 07:39:41;;;;;;;8.50;3.67;;;17.70;99.90;;;;;;5022548;28;20125;-67
2022/05/16 07:42:09;;;;;;;9.75;4.13;;;17.70;99.90;;;;;;5005676;28;20026;-66
2022/05/16 07:44:35;;;;;;;11.30;4.13;;;17.80;99.90;;;;;;5020583;28;20169;-67
2022/05/16 07:47:02;;;;;;;9.60;3.83;;;17.90;99.90;;;;;;5020268;28;20067;-66
2022/05/16 07:49:27;;;;;;;12.50;4.30;;;18.00;99.90;;;;;;5002021;28;20041;-66
2022/05/16 07:51:53;;;;;;;11.65;3.90;;;18.10;99.90;;;;;;5006361;28;20017;-65
2022/05/16 07:54:19;;;;;;;13.82;4.35;;;18.30;99.90;;;;;;5021697;28;20143;-67
2022/05/16 07:56:45;;;;;;;11.02;4.07;;;18.30;99.90;;;;;;5021115;28;20034;-66
2022/05/16 07:59:11;;;;;;;10.30;3.47;;;18.40;99.90;;;;;;5020924;28;20060;-66
2022/05/16 08:01:37;;;;;;;11.07;3.70;;;18.30;99.90;;;;;;5022319;28;20086;-65
2022/05/16 08:04:05;;;;;;;11.73;4.13;;;18.40;99.90;;;;;;5021444;28;20053;-67
2022/05/16 08:06:31;;;;;;;14.30;3.47;;;18.30;99.90;;;;;;5020716;28;20013;-66
2022/05/16 08:11:42;;;;;;;12.30;3.70;;;18.30;99.90;;;;;;5007955;28;20030;-66
2022/05/16 08:14:08;;;;;;;7.10;3.28;;;18.40;99.90;;;;;;5005018;28;20309;-66
2022/05/16 08:16:33;;;;;;;12.48;3.60;;;18.40;99.90;;;;;;5021446;28;20364;-68
2022/05/16 08:18:59;;;;;;;12.43;3.17;;;18.30;99.90;;;;;;5022039;28;20025;-65
2022/05/16 08:21:25;;;;;;;11.15;3.33;;;18.30;99.90;;;;;;5022422;28;20017;-65
2022/05/16 08:23:51;;;;;;;14.10;3.10;;;18.30;99.90;;;;;;5020894;28;20105;-65
2022/05/16 08:26:17;;;;;;;26.10;4.13;;;18.30;99.90;;;;;;5021137;28;20041;-66
2022/05/16 08:28:43;;;;;;;15.38;3.03;;;18.30;99.90;;;;;;5004210;28;20025;-66
2022/05/16 08:31:09;;;;;;;16.80;3.38;;;18.60;99.90;;;;;;5022315;28;20013;-67
2022/05/16 08:33:37;;;;;;;14.23;3.50;;;18.80;99.90;;;;;;5023958;28;20060;-66
2022/05/16 08:41:58;;;;;;;9.52;2.83;;;19.10;99.90;;;;;;5024237;28;20014;-68
2022/05/16 08:44:56;;;;;;;12.50;2.65;;;19.20;99.90;;;;;;5024760;28;20052;-65
2022/05/16 08:47:51;;;;;;;11.45;2.25;;;19.00;99.90;;;;;;5010470;28;20025;-66
2022/05/16 08:50:23;;;;;;;12.00;2.70;;;19.20;99.90;;;;;;5024599;28;20133;-65
2022/05/16 08:53:02;;;;;;;13.20;2.35;;;19.40;99.90;;;;;;5007770;28;20320;-67
2022/05/16 08:55:34;;;;;;;12.93;2.28;;;19.50;99.90;;;;;;5023981;28;20033;-66
2022/05/16 08:58:33;;;;;;;10.27;2.15;;;19.50;99.90;;;;;;5024967;28;20053;-67
2022/05/16 09:01:06;;;;;;;14.75;2.85;;;19.60;99.90;;;;;;5023546;28;20097;-65
2022/05/16 09:03:50;;;;;;;13.75;2.97;;;19.80;99.70;;;;;;5024202;28;20084;-66
2022/05/16 09:06:39;;;;;;;11.88;2.75;;;19.80;99.80;;;;;;5010249;28;20023;-67
2022/05/16 09:09:24;;;;;;;7.43;2.03;;;20.10;99.40;;;;;;5023746;28;20029;-66
2022/05/16 09:12:14;;;;;;;11.40;2.83;;;20.20;98.70;;;;;;5024746;28;20021;-66
2022/05/16 09:15:20;;;;;;;8.38;2.50;;;20.00;98.60;;;;;;5024101;28;20021;-68
2022/05/16 09:18:15;;;;;;;17.27;3.50;;;19.80;99.50;;;;;;5013177;28;20076;-66
2022/05/16 09:21:20;;;;;;;18.45;2.97;;;19.80;99.50;;;;;;5007344;28;20038;-68
2022/05/16 09:24:09;;;;;;;13.05;2.88;;;19.90;99.70;;;;;;5012855;28;20045;-67
2022/05/16 09:27:00;;;;;;;8.75;2.38;;;19.90;99.40;;;;;;5000930;28;20034;-67
2022/05/16 09:29:31;;;;;;;19.90;2.70;;;20.00;99.10;;;;;;5009122;28;20327;-66
2022/05/16 09:32:30;;;;;;;8.15;2.10;;;20.30;98.90;;;;;;5023340;28;20022;-65
2022/05/16 09:34:56;;;;;;;9.95;2.45;;;20.40;98.90;;;;;;5006840;28;20029;-68
2022/05/16 09:37:22;;;;;;;11.30;2.83;;;20.30;98.70;;;;;;5024988;28;20026;-66
2022/05/16 09:39:50;;;;;;;11.90;2.90;;;20.40;97.70;;;;;;5024375;28;20117;-67
2022/05/16 09:42:27;;;;;;;13.45;2.53;;;20.60;97.60;;;;;;5006561;28;20104;-67
2022/05/16 09:45:10;;;;;;;9.52;2.15;;;20.60;97.40;;;;;;5022231;28;20049;-67
2022/05/16 09:47:40;;;;;;;11.48;2.25;;;20.70;96.80;;;;;;5017594;28;20321;-65
2022/05/16 09:50:27;;;;;;;10.77;2.28;;;20.80;96.90;;;;;;5022657;28;20026;-67
2022/05/16 09:53:14;;;;;;;10.95;2.47;;;20.60;95.90;;;;;;5006239;28;20022;-67
2022/05/16 09:56:03;;;;;;;10.25;2.20;;;20.50;96.50;;;;;;5003886;28;20076;-67
2022/05/16 09:58:36;;;;;;;10.65;1.85;;;20.50;96.10;;;;;;4989995;28;20058;-67
2022/05/16 10:01:06;;;;;;;12.23;2.10;;;20.50;95.60;;;;;;5010764;28;20085;-65
2022/05/16 10:03:47;;;;;;;11.00;2.30;;;20.60;95.80;;;;;;5007187;28;20044;-66
2022/05/16 10:06:35;;;;;;;21.15;3.25;;;20.50;96.20;;;;;;5022231;28;20028;-64
2022/05/16 10:09:08;;;;;;;9.80;1.80;;;20.40;96.10;;;;;;5009344;28;20120;-69
2022/05/16 10:11:33;;;;;;;11.13;2.45;;;20.40;96.10;;;;;;5006322;28;20034;-67
2022/05/16 10:14:00;;;;;;;12.82;2.00;;;20.50;96.00;;;;;;5022762;28;20053;-68
2022/05/16 10:16:29;;;;;;;14.88;2.67;;;20.40;96.10;;;;;;5023115;28;20328;-67
2022/05/16 10:18:58;;;;;;;19.20;2.50;;;20.40;96.70;;;;;;5022138;28;20212;-66
2022/05/16 10:21:29;;;;;;;12.68;2.50;;;20.60;96.60;;;;;;5023827;28;20209;-68
2022/05/16 10:23:58;;;;;;;14.03;2.70;;;20.70;96.40;;;;;;5005996;28;20022;-67
2022/05/16 10:26:27;;;;;;;20.35;3.30;;;20.80;96.20;;;;;;5022555;28;20197;-66
2022/05/16 10:28:58;;;;;;;19.67;3.58;;;20.90;96.00;;;;;;5023653;28;20359;-66
2022/05/16 10:34:22;;;;;;;12.05;2.50;;;21.70;94.50;;;;;;5016722;28;20305;-67
2022/05/16 10:36:52;;;;;;;11.05;2.22;;;21.70;93.90;;;;;;5005658;28;20025;-68
2022/05/16 10:39:24;;;;;;;21.80;2.90;;;21.70;94.00;;;;;;5022480;28;20030;-66
2022/05/16 10:42:10;;;;;;;16.20;2.80;;;21.70;94.10;;;;;;5021992;28;20359;-69
2022/05/16 10:45:05;;;;;;;16.90;3.15;;;21.40;94.20;;;;;;5022100;28;20041;-65
2022/05/16 10:47:44;;;;;;;19.58;3.20;;;21.20;94.90;;;;;;5009999;28;20240;-69
2022/05/16 10:50:15;;;;;;;17.52;3.05;;;20.90;96.30;;;;;;5023012;28;20032;-69
2022/05/16 10:52:49;;;;;;;19.33;3.28;;;20.60;98.70;;;;;;5005778;28;20033;-68
2022/05/16 10:55:19;;;;;;;10.52;2.63;;;20.30;99.80;;;;;;5023467;28;20195;-68
2022/05/16 10:58:15;;;;;;;17.42;3.70;;;20.30;99.90;;;;;;5021093;28;20058;-68
2022/05/16 11:01:06;;;;;;;14.80;2.97;;;20.50;99.90;;;;;;5008152;28;20103;-67
2022/05/16 11:03:52;;;;;;;21.05;3.75;;;20.60;99.50;;;;;;5008812;28;20032;-68
2022/05/16 11:06:34;;;;;;;18.98;3.88;;;20.30;99.90;;;;;;5016359;28;20010;-67
2022/05/16 11:09:11;;;;;;;19.63;3.72;;;20.20;99.90;;;;;;5019701;28;20033;-66
2022/05/16 11:11:48;;;;;;;17.95;3.40;;;20.40;99.90;;;;;;5021964;28;20029;-67
2022/05/16 11:14:40;;;;;;;17.00;3.15;;;20.90;99.10;;;;;;5023545;28;20249;-67
2022/05/16 11:17:24;;;;;;;21.55;3.88;;;20.90;99.00;;;;;;5022224;28;20072;-68
2022/05/16 11:20:10;;;;;;;20.20;3.70;;;21.00;99.30;;;;;;5021364;28;20038;-69
2022/05/16 11:22:41;;;;;;;13.52;2.75;;;21.20;98.50;;;;;;5021114;28;20025;-69
2022/05/16 11:25:15;;;;;;;10.07;2.47;;;21.40;97.30;;;;;;5015821;28;20022;-67
2022/05/16 11:28:07;;;;;;;18.55;3.28;;;21.30;96.70;;;;;;5022528;28;20085;-67
2022/05/16 11:30:52;;;;;;;;;;;21.00;97.60;;;;;;5008221;28;20033;-67
2022/05/16 11:33:29;;;;;;;8.02;2.22;;;21.00;97.10;;;;;;5021283;28;19909;-67
2022/05/16 11:36:02;;;;;;;12.65;2.70;;;21.10;96.60;;;;;;5021847;28;20375;-67
2022/05/16 11:38:58;;;;;;;11.02;2.72;;;21.00;97.10;;;;;;5004953;28;20021;-69
2022/05/16 11:41:53;;;;;;;14.25;2.72;;;20.80;97.10;;;;;;5009168;28;20022;-68
2022/05/16 11:44:50;;;;;;;19.02;3.08;;;21.00;97.30;;;;;;5021916;28;20301;-69
2022/05/16 11:47:23;;;;;;;8.90;2.45;;;21.20;97.10;;;;;;5021017;28;20024;-68
2022/05/16 11:50:16;;;;;;;9.57;2.22;;;21.00;98.50;;;;;;5022642;28;20099;-68
2022/05/16 11:52:53;;;;;;;12.88;1.90;;;20.80;99.30;;;;;;5021610;28;20045;-67
2022/05/16 12:01:04;;;;;;;8.13;2.10;;;20.60;98.00;;;;;;5007430;28;20336;-69
2022/05/16 12:04:01;;;;;;;12.00;2.92;;;20.70;97.40;;;;;;5020878;28;20045;-68
2022/05/16 12:06:38;;;;;;;10.38;2.38;;;20.80;97.70;;;;;;5006464;28;20026;-68
2022/05/16 12:09:24;;;;;;;19.02;2.83;;;20.90;97.40;;;;;;5022729;28;20026;-68
2022/05/16 12:12:01;;;;;;;8.40;2.08;;;20.90;97.00;;;;;;4998018;28;20107;-69
2022/05/16 12:14:32;;;;;;;13.40;2.38;;;21.00;96.80;;;;;;5025248;28;20052;-67
2022/05/16 12:17:21;;;;;;;8.15;2.00;;;21.00;96.60;;;;;;5026265;28;20164;-66
2022/05/16 12:19:50;;;;;;;15.63;2.60;;;20.70;96.70;;;;;;5025361;28;20025;-69
2022/05/16 12:22:45;;;;;;;11.50;2.35;;;20.70;96.70;;;;;;5024373;28;20229;-68
2022/05/16 12:25:29;;;;;;;12.15;2.72;;;20.80;96.30;;;;;;5012891;28;20089;-66
2022/05/16 12:28:19;;;;;;;14.80;2.35;;;20.50;96.10;;;;;;5026161;28;20022;-67
2022/05/16 12:30:55;;;;;;;17.98;3.90;;;20.10;98.40;;;;;;5024218;28;20309;-68
2022/05/16 12:33:51;;;;;;;12.85;2.88;;;20.20;99.30;;;;;;5024168;28;20017;-67
2022/05/16 12:36:20;;;;;;;16.60;2.20;;;20.70;97.90;;;;;;5025214;28;20026;-67
2022/05/16 12:38:52;;;;;;;13.23;2.05;;;21.10;96.30;;;;;;5024234;28;20029;-68
2022/05/16 12:41:47;;;;;;;11.35;2.53;;;21.40;95.60;;;;;;5024731;28;20026;-67
2022/05/16 12:44:44;;;;;;;16.98;2.47;;;21.80;94.80;;;;;;5025453;28;20301;-68
2022/05/16 12:47:42;;;;;;;12.57;2.25;;;22.10;93.30;;;;;;5024797;28;20021;-67
2022/05/16 12:50:48;;;;;;;14.23;2.22;;;22.20;92.80;;;;;;5024888;28;20046;-69
2022/05/16 12:53:51;;;;;;;10.48;2.20;;;22.00;91.40;;;;;;5024054;28;20022;-70
2022/05/16 12:56:24;;;;;;;10.60;1.80;;;21.70;92.00;;;;;;5024592;28;20017;-68
2022/05/16 12:59:17;;;;;;;13.32;2.08;;;21.20;92.90;;;;;;5025378;28;20358;-67
2022/05/16 13:01:51;;;;;;;9.52;2.08;;;21.00;93.90;;;;;;5023328;28;20046;-66
2022/05/16 13:04:57;;;;;;;12.30;1.92;;;20.70;94.10;;;;;;5025311;28;20048;-65
2022/05/16 13:07:44;;;;;;;16.42;2.53;;;20.70;93.90;;;;;;5010026;28;20370;-66
2022/05/16 13:10:34;;;;;;;9.05;1.55;;;20.90;94.00;;;;;;5021553;28;20312;-65
2022/05/16 13:13:26;;;;;;;14.30;2.13;;;21.00;93.40;;;;;;5024124;28;20089;-67
2022/05/16 13:16:19;;;;;;;13.27;2.30;;;20.90;93.20;;;;;;5024633;28;20049;-66
2022/05/16 13:18:53;;;;;;;6.10;1.25;;;20.70;93.60;;;;;;5023147;28;20025;-68
2022/05/16 13:21:20;;;;;;;16.05;1.80;;;20.90;93.80;;;;;;5023735;28;20032;-66
2022/05/16 13:23:46;;;;;;;8.15;1.70;;;21.00;94.00;;;;;;5024171;28;20029;-67
2022/05/16 13:31:48;;;;;;;9.48;1.45;;;20.50;94.30;;;;;;5023506;28;20025;-65
2022/05/16 13:34:27;;;;;;;6.20;1.30;;;20.60;94.70;;;;;;5024381;28;20018;-66
2022/05/16 13:36:53;;;;;;;11.43;1.40;;;20.70;94.60;;;;;;5024990;28;20287;-66